Time;durP1;ratioP1;P1;durP2;ratioP2;P2;SDS_P1;SDS_P2;PMS_P1;PMS_P2;Temp;Humidity;BMP_temperature;BMP_pressure;BME280_temperature;BME280_humidity;BME280_pressure;Samples;Min_cycle;Max_cycle;Signal;HPM_P1;HPM_P2
2022/05/06 00:01:55;;;;;;;12.40;9.80;;;;;;;6.95;79.58;97971.77;110177;1250;68819;-68
2022/05/06 00:04:25;;;;;;;17.10;14.10;;;;;;;6.92;79.17;97973.77;110176;1248;67706;-68
2022/05/06 00:06:55;;;;;;;12.40;8.80;;;;;;;6.86;78.70;97972.88;110151;1250;69383;-68
2022/05/06 00:09:25;;;;;;;11.30;9.60;;;;;;;6.82;80.85;97972.40;110046;1249;58908;-67
2022/05/06 00:11:55;;;;;;;14.60;10.80;;;;;;;6.78;79.35;97981.90;110134;1249;58892;-69
2022/05/06 00:14:26;;;;;;;14.70;11.50;;;;;;;6.76;80.95;97982.37;110104;1250;70776;-68
2022/05/06 00:16:56;;;;;;;13.50;10.70;;;;;;;6.75;80.98;97981.91;110160;1247;67818;-69
2022/05/06 00:19:26;;;;;;;11.90;9.70;;;;;;;6.72;80.12;97988.80;110091;1250;69221;-70
2022/05/06 00:21:56;;;;;;;12.80;9.90;;;;;;;6.66;78.68;97989.96;110190;1248;58928;-68
2022/05/06 00:24:28;;;;;;;15.50;10.50;;;;;;;6.59;77.66;97988.72;110126;1247;58866;-69
2022/05/06 00:26:59;;;;;;;14.40;10.90;;;;;;;6.50;77.02;97989.83;110161;1251;70142;-70
2022/05/06 00:29:31;;;;;;;14.00;11.50;;;;;;;6.44;78.71;97990.83;110063;1251;68629;-69
2022/05/06 00:32:02;;;;;;;17.60;14.60;;;;;;;6.40;83.08;97985.48;110117;1251;69245;-72
2022/05/06 00:34:31;;;;;;;18.20;13.80;;;;;;;6.37;83.46;97985.79;110096;1250;58947;-70
2022/05/06 00:37:01;;;;;;;18.20;13.70;;;;;;;6.34;82.55;97988.36;110152;1250;58994;-68
2022/05/06 00:39:30;;;;;;;14.60;12.40;;;;;;;6.32;83.60;97990.52;109952;1251;69973;-68
2022/05/06 00:42:00;;;;;;;13.50;11.30;;;;;;;6.30;83.91;97990.77;110115;1248;68459;-68
2022/05/06 00:44:32;;;;;;;14.50;12.20;;;;;;;6.31;83.47;97991.96;110137;1248;69312;-68
2022/05/06 00:47:04;;;;;;;12.70;9.80;;;;;;;6.31;83.48;97995.41;109947;1251;58876;-68
2022/05/06 00:49:36;;;;;;;13.20;10.50;;;;;;;6.30;83.38;98000.67;110200;1248;58846;-66
2022/05/06 00:52:09;;;;;;;13.50;9.80;;;;;;;6.27;81.69;98009.96;109955;1248;69952;-69
2022/05/06 00:54:40;;;;;;;13.00;10.80;;;;;;;6.22;80.16;98006.39;110035;1250;67936;-68
2022/05/06 00:57:10;;;;;;;14.40;11.60;;;;;;;6.19;82.43;98007.23;109998;1250;68882;-67
2022/05/06 01:02:29;;;;;;;15.80;11.70;;;;;;;6.13;83.61;98004.90;110012;1250;58946;-67
2022/05/06 01:05:07;;;;;;;11.20;9.20;;;;;;;6.10;83.27;98005.02;110151;1248;71019;-68
2022/05/06 01:07:39;;;;;;;12.50;9.80;;;;;;;6.06;81.33;98007.96;109991;1248;67763;-69
2022/05/06 01:10:10;;;;;;;15.00;11.20;;;;;;;6.05;80.96;98009.57;109884;1251;67577;-68
2022/05/06 01:12:39;;;;;;;15.30;11.60;;;;;;;6.03;79.61;98006.58;109943;1250;58956;-69
2022/05/06 01:15:26;;;;;;;12.10;9.50;;;;;;;6.00;81.96;98003.42;110184;1248;58865;-68
2022/05/06 01:18:03;;;;;;;20.00;14.00;;;;;;;5.96;83.81;98000.80;110120;1251;70527;-68
2022/05/06 01:20:38;;;;;;;16.10;11.60;;;;;;;5.93;85.07;97999.20;110072;1248;68539;-68
2022/05/06 01:23:08;;;;;;;17.40;13.40;;;;;;;5.90;85.34;97996.35;109836;1251;69854;-67
2022/05/06 01:25:37;;;;;;;18.40;14.60;;;;;;;5.88;85.97;97994.56;109916;1250;58869;-69
2022/05/06 01:28:07;;;;;;;;;;;;;;;5.86;85.68;97993.42;110076;1250;58836;-70
2022/05/06 01:30:40;;;;;;;16.50;13.20;;;;;;;5.83;84.06;97990.46;110146;1250;70776;-69
2022/05/06 01:33:13;;;;;;;18.60;13.70;;;;;;;5.81;85.31;97988.67;110191;1247;67574;-70
2022/05/06 01:35:51;;;;;;;12.50;10.40;;;;;;;5.77;83.35;97989.35;109961;1251;69386;-68
2022/05/06 01:38:49;;;;;;;15.20;11.80;;;;;;;5.73;82.30;97988.48;110183;1250;59025;-69
2022/05/06 01:41:26;;;;;;;16.30;11.00;;;;;;;5.70;83.78;97989.84;110103;1250;58925;-67
2022/05/06 01:44:25;;;;;;;16.60;13.30;;;;;;;5.66;85.10;97989.50;110106;1248;70704;-67
2022/05/06 01:46:58;;;;;;;18.60;12.60;;;;;;;5.62;87.04;97987.89;110099;1247;67857;-68
2022/05/06 01:49:31;;;;;;;14.60;11.40;;;;;;;5.60;87.29;97987.12;110190;1247;69448;-69
2022/05/06 01:52:07;;;;;;;19.20;13.70;;;;;;;5.57;87.46;97978.98;110137;1248;58868;-66
2022/05/06 01:54:41;;;;;;;18.40;13.50;;;;;;;5.53;87.40;97980.00;110015;1248;58880;-68
2022/05/06 01:57:12;;;;;;;15.50;12.00;;;;;;;5.51;87.94;97981.34;110051;1251;70706;-70
2022/05/06 01:59:44;;;;;;;18.20;12.80;;;;;;;5.48;87.52;97980.77;110085;1247;66716;-69
2022/05/06 02:02:17;;;;;;;16.30;12.50;;;;;;;5.47;88.21;97985.14;109937;1251;68466;-67
2022/05/06 02:07:41;;;;;;;17.40;12.10;;;;;;;5.47;87.38;97990.51;110144;1247;58830;-70
2022/05/06 02:10:13;;;;;;;18.10;13.60;;;;;;;5.48;86.41;97990.80;110164;1247;70029;-70
2022/05/06 02:12:45;;;;;;;16.00;13.10;;;;;;;5.50;85.67;97989.31;109993;1250;67787;-68
2022/05/06 02:15:34;;;;;;;16.60;12.00;;;;;;;5.54;84.96;97991.54;110004;1250;68663;-67
2022/05/06 02:18:24;;;;;;;13.50;9.70;;;;;;;5.57;83.68;97989.52;110109;1247;58901;-67
2022/05/06 02:21:13;;;;;;;11.90;7.90;;;;;;;5.61;82.67;97982.94;110165;1250;58932;-69
2022/05/06 02:23:46;;;;;;;11.40;8.90;;;;;;;5.65;82.17;97981.77;110157;1247;69823;-67
2022/05/06 02:26:42;;;;;;;12.70;9.10;;;;;;;5.66;82.04;97983.10;109842;1251;67576;-71
2022/05/06 02:29:13;;;;;;;11.00;8.30;;;;;;;5.64;81.24;97986.28;110079;1248;68617;-68
2022/05/06 02:34:31;;;;;;;12.80;9.80;;;;;;;5.60;81.71;97991.11;110088;1250;58931;-68
2022/05/06 02:37:05;;;;;;;12.70;9.10;;;;;;;5.60;84.59;97992.84;110143;1248;70444;-69
2022/05/06 02:39:43;;;;;;;9.50;7.70;;;;;;;5.59;84.11;97994.44;110016;1251;68096;-68
2022/05/06 02:42:19;;;;;;;10.00;8.50;;;;;;;5.58;83.06;97995.02;110071;1250;69450;-68
2022/05/06 02:44:51;;;;;;;13.30;9.60;;;;;;;5.57;84.41;97999.19;110001;1251;58924;-70
2022/05/06 02:47:22;;;;;;;11.40;8.90;;;;;;;5.57;83.98;97998.19;110013;1251;58894;-66
2022/05/06 02:49:53;;;;;;;11.30;8.50;;;;;;;5.55;83.31;98001.55;110154;1248;70772;-68
2022/05/06 02:52:24;;;;;;;12.20;8.70;;;;;;;5.53;83.69;98003.15;110215;1248;68563;-67
2022/05/06 02:54:57;;;;;;;12.10;8.20;;;;;;;5.52;82.98;98001.32;109955;1250;69422;-68
2022/05/06 02:57:29;;;;;;;11.00;8.50;;;;;;;5.51;81.34;97998.11;110010;1248;58928;-68
2022/05/06 03:00:00;;;;;;;14.00;10.30;;;;;;;5.51;80.19;98002.59;110058;1251;58916;-70
2022/05/06 03:02:32;;;;;;;10.30;7.40;;;;;;;5.50;80.02;98001.76;109781;1250;69857;-67
2022/05/06 03:05:06;;;;;;;11.50;7.70;;;;;;;5.49;79.76;98006.45;109812;1251;69057;-67
2022/05/06 03:07:37;;;;;;;13.30;9.20;;;;;;;5.49;81.23;98009.92;109796;1247;70741;-67
2022/05/06 03:10:09;;;;;;;10.10;9.10;;;;;;;5.47;82.15;98010.20;109956;1251;58953;-67
2022/05/06 03:12:43;;;;;;;9.80;7.80;;;;;;;5.46;81.00;98007.83;109987;1250;59161;-68
2022/05/06 03:15:16;;;;;;;11.00;8.70;;;;;;;5.47;80.55;98006.91;109982;1247;71090;-70
2022/05/06 03:17:53;;;;;;;11.80;8.80;;;;;;;5.51;81.38;98008.14;109988;1250;67711;-69
2022/05/06 03:20:25;;;;;;;12.20;8.70;;;;;;;5.54;81.88;98004.00;109926;1250;68496;-68
2022/05/06 03:22:56;;;;;;;15.10;10.30;;;;;;;5.58;82.19;98006.93;110229;1247;58931;-70
2022/05/06 03:25:27;;;;;;;15.20;10.60;;;;;;;5.61;81.72;98013.02;109755;1251;58889;-68
2022/05/06 03:27:59;;;;;;;14.50;10.40;;;;;;;5.63;81.83;98012.41;110221;1248;71986;-69
2022/05/06 03:30:31;;;;;;;11.70;9.60;;;;;;;5.64;81.92;98016.20;110181;1247;68680;-68
2022/05/06 03:33:16;;;;;;;15.30;11.10;;;;;;;5.65;83.08;98020.83;109859;1250;69516;-67
2022/05/06 03:35:51;;;;;;;17.90;12.50;;;;;;;5.66;84.34;98025.81;109928;1248;58990;-67
2022/05/06 03:38:20;;;;;;;15.20;11.50;;;;;;;5.66;84.29;98029.09;110087;1248;58790;-69
2022/05/06 03:40:55;;;;;;;10.10;8.50;;;;;;;5.67;84.60;98033.90;110014;1249;70953;-65
2022/05/06 03:43:27;;;;;;;12.30;9.80;;;;;;;5.69;83.37;98035.54;109780;1250;67944;-68
2022/05/06 03:46:02;;;;;;;12.30;8.50;;;;;;;5.74;83.40;98041.90;110150;1247;69073;-72
2022/05/06 03:48:37;;;;;;;10.80;8.50;;;;;;;5.80;82.16;98038.86;109684;1251;58905;-67
2022/05/06 03:51:28;;;;;;;11.70;8.70;;;;;;;5.86;82.31;98039.79;109896;1248;58858;-69
2022/05/06 03:54:07;;;;;;;9.90;7.70;;;;;;;5.93;82.11;98041.60;109977;1248;69953;-70
2022/05/06 03:56:36;;;;;;;12.20;7.80;;;;;;;6.00;82.36;98044.42;109974;1247;67670;-67
2022/05/06 03:59:09;;;;;;;9.10;7.20;;;;;;;6.07;81.42;98040.96;109944;1250;68733;-67
2022/05/06 04:01:42;;;;;;;13.30;10.10;;;;;;;6.16;81.85;98041.98;110242;1247;58882;-67
2022/05/06 04:04:16;;;;;;;11.90;9.10;;;;;;;6.26;83.41;98043.93;110027;1250;58936;-67
2022/05/06 04:06:48;;;;;;;12.50;9.20;;;;;;;6.37;83.00;98047.75;109858;1250;71088;-68
2022/05/06 04:09:21;;;;;;;8.90;7.10;;;;;;;6.50;82.46;98048.37;109795;1251;67211;-69
2022/05/06 04:11:51;;;;;;;13.70;9.70;;;;;;;6.67;81.57;98051.21;109945;1248;68590;-67
2022/05/06 04:14:22;;;;;;;13.60;9.90;;;;;;;6.84;81.68;98055.46;109773;1250;59777;-71
2022/05/06 04:16:54;;;;;;;15.10;10.90;;;;;;;7.04;81.24;98057.58;109700;1251;59736;-68
2022/05/06 04:19:31;;;;;;;13.20;11.00;;;;;;;7.26;81.06;98060.71;110056;1250;71341;-69
2022/05/06 04:25:04;;;;;;;15.60;11.90;;;;;;;7.65;79.62;98062.23;110188;1247;68636;-70
2022/05/06 04:27:34;;;;;;;12.90;11.20;;;;;;;7.82;79.50;98063.25;110037;1248;59670;-68
2022/05/06 04:30:06;;;;;;;14.30;10.60;;;;;;;7.99;79.18;98060.14;109823;1247;59735;-67
2022/05/06 04:32:46;;;;;;;15.00;10.70;;;;;;;8.17;78.67;98055.88;109841;1247;70970;-67
2022/05/06 04:35:19;;;;;;;9.60;7.70;;;;;;;8.33;78.18;98061.80;109779;1248;68660;-69
2022/05/06 04:37:49;;;;;;;15.70;11.40;;;;;;;8.47;77.87;98057.47;110030;1248;67779;-68
2022/05/06 04:40:23;;;;;;;13.00;9.60;;;;;;;8.60;77.63;98058.97;109818;1250;59664;-69
2022/05/06 04:42:53;;;;;;;10.70;9.00;;;;;;;8.76;77.62;98057.27;110182;1247;59625;-69
2022/05/06 04:45:23;;;;;;;13.40;9.70;;;;;;;8.95;77.14;98060.54;109981;1248;71711;-70
2022/05/06 04:48:01;;;;;;;12.20;9.10;;;;;;;9.18;76.58;98061.17;109880;1247;68612;-68
2022/05/06 04:50:35;;;;;;;8.40;7.10;;;;;;;9.45;76.38;98060.83;110173;1247;68651;-70
2022/05/06 04:53:09;;;;;;;10.30;7.00;;;;;;;9.83;76.07;98063.45;110183;1247;59704;-69
2022/05/06 04:55:41;;;;;;;14.20;10.50;;;;;;;10.29;74.13;98060.90;109956;1251;59768;-68
2022/05/06 04:58:11;;;;;;;11.20;9.80;;;;;;;10.70;72.05;98058.01;110175;1247;71608;-67
2022/05/06 05:00:40;;;;;;;13.80;8.70;;;;;;;11.04;73.56;98062.11;110136;1247;68658;-67
2022/05/06 05:03:10;;;;;;;15.70;11.40;;;;;;;11.42;73.91;98059.77;110198;1248;69443;-68
2022/05/06 05:05:39;;;;;;;13.10;9.30;;;;;;;11.73;70.57;98061.62;110183;1248;59681;-68
2022/05/06 05:08:09;;;;;;;13.10;9.70;;;;;;;11.99;68.12;98063.15;110154;1247;59663;-70
2022/05/06 05:10:42;;;;;;;11.90;9.30;;;;;;;12.11;65.12;98061.67;110007;1247;71564;-68
2022/05/06 05:13:12;;;;;;;12.40;9.30;;;;;;;12.41;64.48;98060.48;109983;1248;68537;-70
2022/05/06 05:15:41;;;;;;;9.20;7.80;;;;;;;12.70;64.82;98060.33;110100;1249;67599;-69
2022/05/06 05:18:10;;;;;;;10.20;8.50;;;;;;;13.11;63.80;98059.79;110024;1247;59674;-68
2022/05/06 05:20:39;;;;;;;10.50;8.60;;;;;;;13.48;61.32;98062.21;109973;1248;59704;-67
2022/05/06 05:23:09;;;;;;;7.70;6.20;;;;;;;13.85;58.57;98062.08;110094;1251;70796;-69
2022/05/06 05:25:38;;;;;;;7.90;6.00;;;;;;;14.24;57.30;98058.17;110221;1247;68688;-68
2022/05/06 05:28:09;;;;;;;8.40;6.10;;;;;;;14.73;56.93;98060.69;110177;1247;69328;-68
2022/05/06 05:30:40;;;;;;;7.30;5.70;;;;;;;15.01;53.68;98058.77;109842;1247;59776;-68
2022/05/06 05:33:10;;;;;;;6.90;5.90;;;;;;;15.40;52.14;98058.77;110094;1247;59646;-68
2022/05/06 05:35:45;;;;;;;6.00;4.80;;;;;;;15.84;55.77;98060.96;110189;1247;70781;-67
2022/05/06 05:38:15;;;;;;;7.10;5.90;;;;;;;16.22;51.76;98058.07;110042;1250;68674;-68
2022/05/06 05:40:44;;;;;;;10.40;7.60;;;;;;;16.45;50.50;98058.73;110128;1249;69429;-69
2022/05/06 05:48:53;;;;;;;10.00;7.00;;;;;;;16.49;51.69;98056.48;110127;1247;70865;-70
2022/05/06 05:51:22;;;;;;;8.10;6.90;;;;;;;16.62;49.54;98053.35;110109;1247;67806;-68
2022/05/06 05:53:56;;;;;;;7.30;5.60;;;;;;;16.93;49.21;98052.45;110074;1248;68609;-69
2022/05/06 05:56:27;;;;;;;9.70;6.90;;;;;;;17.18;48.58;98053.96;110121;1247;59664;-70
2022/05/06 05:58:56;;;;;;;9.40;6.80;;;;;;;17.38;48.45;98055.85;109917;1247;59674;-72
2022/05/06 06:01:25;;;;;;;7.40;5.40;;;;;;;17.50;46.38;98054.00;109991;1248;71879;-70
2022/05/06 06:03:57;;;;;;;9.50;6.10;;;;;;;17.60;46.69;98056.27;109942;1247;68582;-70
2022/05/06 06:06:26;;;;;;;8.70;5.90;;;;;;;17.61;45.51;98052.99;110137;1247;68721;-68
2022/05/06 06:08:57;;;;;;;8.70;5.50;;;;;;;17.66;45.46;98054.49;110168;1247;59739;-71
2022/05/06 06:11:27;;;;;;;9.60;5.30;;;;;;;17.66;44.68;98055.72;110199;1247;59678;-72
2022/05/06 06:13:56;;;;;;;5.50;4.50;;;;;;;18.08;45.52;98060.35;110178;1247;71705;-71
2022/05/06 06:16:27;;;;;;;9.60;5.00;;;;;;;18.36;44.59;98054.34;110186;1247;67812;-72
2022/05/06 06:18:58;;;;;;;5.60;4.50;;;;;;;18.85;44.32;98047.60;109798;1248;69414;-73
2022/05/06 06:21:29;;;;;;;5.10;4.20;;;;;;;19.25;43.69;98046.68;110169;1247;59729;-70
2022/05/06 06:23:59;;;;;;;8.70;4.70;;;;;;;19.58;42.05;98043.21;110138;1248;59611;-73
2022/05/06 06:26:27;;;;;;;4.90;4.00;;;;;;;19.70;40.01;98042.02;110196;1247;70798;-70
2022/05/06 06:29:01;;;;;;;9.00;4.70;;;;;;;20.12;39.58;98047.73;109905;1247;68624;-73
2022/05/06 06:31:31;;;;;;;5.20;4.20;;;;;;;20.32;39.91;98047.63;110202;1247;70665;-74
2022/05/06 06:34:02;;;;;;;4.20;3.80;;;;;;;20.46;38.29;98048.86;110109;1247;59754;-70
2022/05/06 06:36:36;;;;;;;5.70;4.10;;;;;;;20.56;37.14;98050.13;110226;1247;59618;-73
2022/05/06 06:39:05;;;;;;;5.20;3.90;;;;;;;20.78;37.23;98053.16;110035;1246;70764;-68
2022/05/06 06:41:38;;;;;;;5.90;4.00;;;;;;;20.94;36.27;98053.41;110208;1247;67867;-69
2022/05/06 06:44:07;;;;;;;7.90;3.90;;;;;;;21.29;36.31;98053.21;110164;1248;68639;-68
2022/05/06 06:47:10;;;;;;;5.60;4.20;;;;;;;21.35;35.73;98052.42;109610;1248;59730;-67
2022/05/06 06:50:07;;;;;;;4.90;3.50;;;;;;;21.78;35.77;98056.82;110139;1247;59743;-69
2022/05/06 06:53:00;;;;;;;5.70;3.90;;;;;;;21.84;34.10;98055.98;110065;1249;70855;-69
2022/05/06 06:55:30;;;;;;;4.70;4.10;;;;;;;21.38;34.86;98054.83;110120;1247;67821;-68
2022/05/06 06:57:59;;;;;;;5.60;4.40;;;;;;;21.17;34.76;98055.10;110114;1247;67883;-70
2022/05/06 07:00:29;;;;;;;5.30;3.70;;;;;;;21.16;35.45;98058.75;110033;1247;60036;-68
2022/05/06 07:02:57;;;;;;;;;;;;;;;21.63;35.66;98062.54;110123;1247;59692;-71
2022/05/06 07:05:27;;;;;;;5.80;4.60;;;;;;;21.72;34.42;98058.98;110152;1247;70923;-69
2022/05/06 07:13:50;;;;;;;5.70;4.70;;;;;;;21.21;35.90;98045.60;110109;1248;59741;-72
2022/05/06 07:16:19;;;;;;;5.70;5.10;;;;;;;20.97;36.27;98042.59;110046;1248;59629;-69
2022/05/06 07:18:51;;;;;;;6.80;4.20;;;;;;;20.53;36.82;98041.55;110154;1247;70813;-72
2022/05/06 07:21:20;;;;;;;5.60;4.40;;;;;;;20.50;36.35;98042.43;110098;1248;68590;-68
2022/05/06 07:23:49;;;;;;;5.00;4.10;;;;;;;20.70;36.81;98036.65;110000;1250;69336;-68
2022/05/06 07:26:19;;;;;;;6.30;4.10;;;;;;;21.37;36.37;98038.92;110097;1250;59768;-71
2022/05/06 07:28:48;;;;;;;4.80;4.30;;;;;;;22.06;35.78;98039.94;109984;1248;59661;-69
2022/05/06 07:31:17;;;;;;;7.00;4.80;;;;;;;22.49;34.15;98036.10;110159;1247;71639;-70
2022/05/06 07:33:45;;;;;;;6.70;4.80;;;;;;;22.06;34.36;98042.56;110160;1247;68596;-69
2022/05/06 07:36:14;;;;;;;4.70;4.20;;;;;;;22.11;33.66;98039.80;110146;1247;68661;-69
2022/05/06 07:38:44;;;;;;;5.90;4.80;;;;;;;22.47;34.02;98042.89;110038;1248;59723;-71
2022/05/06 07:41:13;;;;;;;5.50;4.20;;;;;;;22.45;33.62;98033.52;110187;1247;59640;-70
2022/05/06 07:43:42;;;;;;;7.30;4.60;;;;;;;22.80;33.40;98029.41;110148;1247;70776;-71
2022/05/06 07:46:12;;;;;;;5.80;4.10;;;;;;;23.02;33.26;98025.89;110202;1247;67862;-72
2022/05/06 07:48:42;;;;;;;4.90;3.80;;;;;;;23.26;32.93;98028.64;110090;1247;68652;-68
2022/05/06 07:51:12;;;;;;;6.30;4.50;;;;;;;23.46;31.93;98030.41;110157;1247;59678;-71
2022/05/06 07:53:40;;;;;;;5.20;4.10;;;;;;;23.89;32.59;98032.27;110195;1247;59688;-70
2022/05/06 07:56:11;;;;;;;4.90;4.40;;;;;;;24.56;31.20;98031.74;110176;1247;71095;-73
2022/05/06 07:58:40;;;;;;;5.00;3.80;;;;;;;25.23;30.95;98030.19;110147;1247;68671;-74
2022/05/06 08:01:11;;;;;;;5.00;4.50;;;;;;;25.55;29.53;98034.22;110136;1248;69622;-68
2022/05/06 08:06:30;;;;;;;5.60;4.50;;;;;;;25.06;29.35;98031.75;110128;1247;59741;-69
2022/05/06 08:09:01;;;;;;;5.00;3.70;;;;;;;24.54;29.55;98031.48;110110;1247;70564;-68
2022/05/06 08:11:30;;;;;;;5.60;3.90;;;;;;;24.58;30.28;98026.17;110084;1247;68586;-69
2022/05/06 08:13:59;;;;;;;5.10;4.40;;;;;;;24.36;30.04;98026.42;110142;1247;68547;-69
2022/05/06 08:16:28;;;;;;;;;;;;;;;24.55;29.76;98023.83;110119;1248;59677;-72
2022/05/06 08:18:57;;;;;;;5.50;3.60;;;;;;;24.76;29.95;98020.48;110040;1248;59657;-69
2022/05/06 08:21:26;;;;;;;4.80;4.00;;;;;;;24.87;29.22;98024.23;110200;1247;71788;-68
2022/05/06 08:23:55;;;;;;;5.70;4.00;;;;;;;25.13;28.66;98023.98;110205;1247;67789;-72
2022/05/06 08:26:24;;;;;;;4.40;4.00;;;;;;;25.11;28.79;98029.21;110179;1246;69403;-68
2022/05/06 08:28:53;;;;;;;4.10;3.60;;;;;;;25.14;28.85;98029.06;110185;1247;59693;-68
2022/05/06 08:31:22;;;;;;;4.50;3.60;;;;;;;25.31;28.36;98029.98;110125;1247;59605;-69
2022/05/06 08:33:51;;;;;;;5.40;3.70;;;;;;;25.71;27.87;98023.70;110166;1247;71552;-69
2022/05/06 08:36:20;;;;;;;;;;;;;;;26.03;28.08;98021.34;110179;1247;68076;-66
2022/05/06 08:38:49;;;;;;;5.00;3.60;;;;;;;26.49;27.70;98017.48;110064;1247;69411;-69
2022/05/06 08:41:19;;;;;;;4.00;3.60;;;;;;;26.78;27.27;98012.73;110154;1247;59710;-70
2022/05/06 08:43:48;;;;;;;4.50;3.70;;;;;;;26.88;26.14;98009.13;110165;1247;59669;-69
2022/05/06 08:52:15;;;;;;;5.50;4.90;;;;;;;25.27;27.24;98008.33;109646;1253;68891;-69
2022/05/06 08:54:46;;;;;;;5.00;4.20;;;;;;;24.73;27.68;98007.52;109669;1253;59823;-69
2022/05/06 08:57:15;;;;;;;4.80;4.10;;;;;;;24.99;26.81;98003.20;109929;1247;59690;-70
2022/05/06 08:59:49;;;;;;;;;;;;;;;25.22;26.51;98002.19;110166;1247;71451;-68
2022/05/06 09:02:19;;;;;;;5.70;4.60;;;;;;;25.83;26.38;98003.63;110175;1247;68590;-71
2022/05/06 09:04:48;;;;;;;4.10;3.60;;;;;;;25.93;26.32;98002.02;110207;1247;69449;-69
2022/05/06 09:07:21;;;;;;;;;;;;;;;25.82;26.02;98000.33;110176;1247;59695;-70
2022/05/06 09:10:11;;;;;;;4.10;3.50;;;;;;;24.81;26.60;97998.48;110169;1247;59681;-69
2022/05/06 09:12:45;;;;;;;5.50;3.80;;;;;;;25.18;26.51;97998.52;110207;1247;71630;-71
2022/05/06 09:18:07;;;;;;;5.20;4.50;;;;;;;25.50;26.20;98008.17;110019;1248;69692;-70
2022/05/06 09:20:42;;;;;;;5.80;4.50;;;;;;;25.14;25.75;98006.05;110168;1247;59704;-72
2022/05/06 09:23:21;;;;;;;4.60;4.10;;;;;;;25.00;25.62;97999.52;110085;1248;59684;-69
2022/05/06 09:25:54;;;;;;;4.10;3.60;;;;;;;24.46;26.28;98003.83;110206;1247;71023;-73
2022/05/06 09:28:28;;;;;;;5.50;4.80;;;;;;;24.54;28.00;97996.75;109950;1248;68158;-68
2022/05/06 09:31:08;;;;;;;4.80;4.30;;;;;;;24.65;26.88;97999.65;110214;1247;69089;-71
2022/05/06 09:33:40;;;;;;;5.70;3.80;;;;;;;24.88;27.07;97995.11;110167;1247;59674;-68
2022/05/06 09:36:29;;;;;;;4.50;3.60;;;;;;;24.98;26.29;97994.66;110238;1247;59743;-68
2022/05/06 09:39:12;;;;;;;4.30;3.80;;;;;;;25.26;25.51;97993.30;110183;1247;71441;-72
2022/05/06 09:41:41;;;;;;;5.00;3.90;;;;;;;25.19;25.72;97989.48;110205;1247;68600;-68
2022/05/06 09:44:12;;;;;;;4.40;3.80;;;;;;;24.79;25.93;97986.91;110007;1250;69525;-70
2022/05/06 09:46:41;;;;;;;4.10;3.60;;;;;;;25.43;25.85;97985.97;109973;1249;59720;-70
2022/05/06 09:49:10;;;;;;;;;;;;;;;25.47;24.89;97981.77;109936;1248;59697;-71
2022/05/06 09:52:10;;;;;;;4.90;4.00;;;;;;;25.11;25.52;97978.60;110009;1250;71660;-72
2022/05/06 09:54:44;;;;;;;6.50;4.40;;;;;;;25.18;24.81;97977.55;110015;1250;68658;-72
2022/05/06 09:57:16;;;;;;;4.20;3.70;;;;;;;25.73;26.15;97979.69;109875;1248;327522;-70
2022/05/06 09:59:46;;;;;;;4.70;3.50;;;;;;;26.08;25.29;97980.70;110115;1249;60087;-69
2022/05/06 10:02:15;;;;;;;4.40;3.50;;;;;;;26.51;25.13;97972.38;110118;1248;59751;-71
2022/05/06 10:04:44;;;;;;;4.90;3.70;;;;;;;26.51;24.62;97968.09;110065;1250;70799;-70
2022/05/06 10:07:16;;;;;;;4.20;3.80;;;;;;;27.13;24.10;97967.14;110119;1250;67824;-71
2022/05/06 10:10:06;;;;;;;4.60;3.30;;;;;;;27.24;23.43;97965.12;109939;1250;68706;-68
2022/05/06 10:12:39;;;;;;;3.80;3.00;;;;;;;27.03;23.84;97960.37;109976;1247;59732;-68
2022/05/06 10:15:12;;;;;;;4.20;3.60;;;;;;;27.19;23.48;97962.54;110125;1247;59714;-70
2022/05/06 10:17:55;;;;;;;5.10;3.60;;;;;;;26.79;23.78;97960.20;110193;1247;71095;-71
2022/05/06 10:20:36;;;;;;;4.70;3.90;;;;;;;27.20;23.85;97958.52;109947;1250;68862;-72
2022/05/06 10:23:08;;;;;;;5.10;3.70;;;;;;;27.49;22.80;97958.88;110178;1247;67607;-68
2022/05/06 10:25:43;;;;;;;5.30;4.30;;;;;;;27.35;22.73;97958.46;110104;1249;60158;-68
2022/05/06 10:34:10;;;;;;;4.80;3.80;;;;;;;27.15;23.45;97948.84;109945;1249;68571;-70
2022/05/06 10:36:43;;;;;;;5.70;4.00;;;;;;;27.15;22.97;97942.57;110070;1249;68891;-69
2022/05/06 10:39:25;;;;;;;4.40;4.00;;;;;;;26.70;23.17;97938.04;110097;1250;59674;-70
2022/05/06 10:42:04;;;;;;;4.40;3.90;;;;;;;26.36;24.35;97931.69;110094;1250;59609;-67
2022/05/06 10:44:41;;;;;;;3.30;2.90;;;;;;;26.46;24.54;97930.46;109948;1250;70971;-70
2022/05/06 10:47:16;;;;;;;4.10;3.20;;;;;;;26.69;23.49;97932.36;109950;1250;68647;-69
2022/05/06 10:49:52;;;;;;;4.30;3.70;;;;;;;26.97;23.69;97930.34;110065;1249;68619;-68
2022/05/06 10:52:28;;;;;;;4.40;3.50;;;;;;;27.17;22.87;97929.20;110057;1249;59725;-70
2022/05/06 10:55:03;;;;;;;4.40;3.60;;;;;;;27.23;23.85;97925.46;110214;1247;59803;-73
2022/05/06 10:57:45;;;;;;;4.20;3.80;;;;;;;27.37;23.56;97920.34;109978;1248;71374;-71
2022/05/06 11:00:16;;;;;;;4.10;3.30;;;;;;;27.49;23.87;97917.20;109900;1248;67881;-70
2022/05/06 11:02:45;;;;;;;4.80;3.60;;;;;;;27.11;23.41;97916.77;110260;1247;69901;-70
2022/05/06 11:05:16;;;;;;;6.10;4.50;;;;;;;26.95;23.51;97911.77;109903;1248;59719;-70
2022/05/06 11:07:50;;;;;;;5.10;4.10;;;;;;;26.33;23.68;97907.94;110256;1246;59727;-73
2022/05/06 11:10:27;;;;;;;4.80;4.10;;;;;;;25.74;24.17;97911.72;110275;1247;70536;-69
2022/05/06 11:13:18;;;;;;;3.90;3.40;;;;;;;25.62;24.88;97905.99;110207;1246;66823;-68
2022/05/06 11:15:48;;;;;;;4.90;3.60;;;;;;;25.84;24.36;97904.61;110252;1247;69485;-69
2022/05/06 11:18:19;;;;;;;4.50;3.90;;;;;;;25.93;24.22;97905.45;110167;1247;59772;-69
2022/05/06 11:20:48;;;;;;;5.00;3.70;;;;;;;26.05;23.55;97907.98;110233;1247;59614;-67
2022/05/06 11:23:18;;;;;;;;;;;;;;;25.89;23.57;97909.16;110200;1247;71562;-67
2022/05/06 11:25:50;;;;;;;3.40;3.10;;;;;;;25.88;23.45;97906.27;110018;1248;68563;-68
2022/05/06 11:28:21;;;;;;;4.00;3.10;;;;;;;26.30;23.97;97903.66;110007;1247;69443;-69
2022/05/06 11:30:52;;;;;;;4.30;3.40;;;;;;;26.58;24.57;97899.36;109882;1247;59678;-71
2022/05/06 11:33:28;;;;;;;6.30;4.00;;;;;;;26.55;24.80;97897.84;110218;1246;59611;-68
2022/05/06 11:36:01;;;;;;;5.20;3.80;;;;;;;26.51;24.70;97892.45;109981;1247;71506;-70
2022/05/06 11:38:37;;;;;;;6.50;3.80;;;;;;;26.93;24.45;97892.70;110272;1247;68632;-69
2022/05/06 11:41:10;;;;;;;5.00;3.80;;;;;;;26.83;23.82;97890.98;110129;1247;69186;-69
2022/05/06 11:43:41;;;;;;;4.60;3.80;;;;;;;26.60;23.73;97889.59;109935;1250;59727;-68
2022/05/06 11:49:09;;;;;;;4.50;3.80;;;;;;;26.67;24.16;97886.17;110105;1247;72026;-72
2022/05/06 11:51:44;;;;;;;3.60;3.10;;;;;;;26.88;23.96;97888.14;110209;1247;68752;-70
2022/05/06 11:54:17;;;;;;;3.70;3.10;;;;;;;27.24;23.44;97885.09;110243;1247;69437;-68
2022/05/06 11:56:47;;;;;;;3.40;3.10;;;;;;;27.43;22.32;97889.00;110214;1247;59814;-67
2022/05/06 11:59:18;;;;;;;3.20;2.90;;;;;;;27.70;22.58;97883.73;110251;1247;59626;-70
2022/05/06 12:01:50;;;;;;;3.80;3.10;;;;;;;27.67;22.19;97881.88;110202;1247;71549;-66
2022/05/06 12:04:32;;;;;;;4.00;3.60;;;;;;;27.12;22.96;97879.70;109959;1248;68147;-69
2022/05/06 12:07:04;;;;;;;5.40;3.50;;;;;;;27.10;23.46;97876.34;109927;1250;69233;-68
2022/05/06 12:09:44;;;;;;;4.10;3.70;;;;;;;26.45;24.28;97871.69;110218;1247;59669;-69
2022/05/06 12:12:13;;;;;;;4.70;3.20;;;;;;;25.60;24.03;97866.91;110125;1247;59707;-70
2022/05/06 12:14:42;;;;;;;3.50;2.50;;;;;;;25.90;24.43;97866.20;110044;1247;70636;-70
2022/05/06 12:17:14;;;;;;;3.80;3.10;;;;;;;26.02;24.35;97863.64;109990;1247;67943;-68
2022/05/06 12:19:45;;;;;;;3.60;3.10;;;;;;;25.96;24.24;97862.98;109953;1247;68645;-67
2022/05/06 12:22:22;;;;;;;3.90;3.20;;;;;;;25.89;24.10;97857.80;110266;1247;59662;-69
2022/05/06 12:24:58;;;;;;;3.00;2.60;;;;;;;25.82;24.85;97859.19;110057;1247;59734;-71
2022/05/06 12:27:33;;;;;;;4.00;3.60;;;;;;;25.90;23.95;97854.99;110004;1247;70596;-68
2022/05/06 12:30:04;;;;;;;3.90;3.00;;;;;;;26.01;25.37;97854.80;110104;1248;68624;-70
2022/05/06 12:32:39;;;;;;;3.90;3.00;;;;;;;26.30;24.29;97847.02;110171;1247;68627;-70
2022/05/06 12:35:12;;;;;;;4.20;3.30;;;;;;;26.20;24.93;97846.30;110252;1247;59757;-68